Latest Weather Observations for Hindmarsh Island

IDS60801

Issued at 8:01 am CDT Thursday 22 February 2024 (issued every 10 minutes, with the page automatically refreshed every 10 minutes)

About weather observations | Map of weather stations | Latest weather observations for SA | Other Formats
Station Details ID: 023894 Name: HINDMARSH ISLAND AWS Lat: -35.52 Lon: 138.82 Height: 11.0 m
Data from the previous 72 hours. | See also: Recent months at Hindmarsh Island
Date/Time
CDT
Temp
°C
App
Temp
°C
Dew
Point
°C
Rel
Hum
%
Delta-T
°C
Wind Press
QNH
hPa
Press
MSL
hPa
Rain since
9am
mm
Dir  Spd
km/h
Gust
km/h
Spd
kts
Gust
kts
22/08:00am 23.9 23.4 14.9 57 5.4 NW 11 17 6 9 1006.3 1006.2 0.0
22/07:30am 22.3 21.7 14.7 62 4.5 NW 11 15 6 8 1006.2 1006.1 0.0
22/07:00am 21.7 22.9 16.0 70 3.4 W 4 6 2 3 1006.2 1006.1 0.0
22/06:30am 21.7 21.1 14.6 64 4.2 W 11 13 6 7 1005.6 1005.5 0.0
22/06:00am 21.5 20.7 15.1 67 3.8 W 13 17 7 9 1005.3 1005.2 0.0
22/05:30am 21.9 20.8 14.3 62 4.5 NW 13 17 7 9 1005.0 1004.9 0.0
22/05:00am 21.2 21.9 14.6 66 3.9 NNW 4 9 2 5 1004.8 1004.7 0.0
22/04:30am 21.1 21.7 15.2 69 3.5 N 6 11 3 6 1004.5 1004.4 0.0
22/04:00am 20.8 20.0 14.0 65 3.9 NNE 11 17 6 9 1004.6 1004.5 0.0
22/03:30am 19.6 18.9 13.1 66 3.7 ENE 9 13 5 7 1005.0 1004.9 0.0
22/03:00am 20.7 21.8 13.6 64 4.1 CALM 0 6 0 3 1005.3 1005.2 0.0
22/02:30am 21.8 20.2 13.9 60 4.6 NW 15 17 8 9 1005.3 1005.2 0.0
22/02:00am 22.4 19.7 12.9 55 5.4 N 19 22 10 12 1005.1 1005.0 0.0
22/01:30am 20.4 20.0 14.1 67 3.7 N 9 13 5 7 1005.8 1005.7 0.0
22/01:00am 20.8 21.4 16.8 78 2.4 NNE 9 13 5 7 1006.2 1006.1 0.0
22/12:30am 20.0 18.9 16.4 80 2.2 NE 17 20 9 11 1006.6 1006.5 0.0
22/12:00am 20.5 21.7 16.9 80 2.2 N 6 9 3 5 1006.6 1006.5 0.0
 
Date/Time
CDT
Temp
°C
App
Temp
°C
Dew
Point
°C
Rel
Hum
%
Delta-T
°C
Wind Press
QNH
hPa
Press
MSL
hPa
Rain since
9am
mm
Dir  Spd
km/h
Gust
km/h
Spd
kts
Gust
kts
21/11:30pm 21.6 23.6 17.8 79 2.4 N 4 9 2 5 1006.9 1006.8 0.0
21/11:00pm 21.8 23.6 18.4 81 2.1 N 6 9 3 5 1007.3 1007.2 0.0
21/10:30pm 22.1 23.2 16.6 71 3.4 N 6 7 3 4 1007.3 1007.2 0.0
21/10:00pm 21.5 24.0 17.3 77 2.6 CALM 0 6 0 3 1007.2 1007.1 0.0
21/09:30pm 22.0 23.4 17.8 77 2.6 S 7 7 4 4 1007.3 1007.2 0.0
21/09:00pm 22.5 23.9 17.8 75 2.9 S 7 9 4 5 1007.0 1006.9 0.0
21/08:30pm 22.7 23.3 16.9 70 3.6 SSW 9 11 5 6 1006.8 1006.7 0.0
21/08:00pm 23.7 23.0 15.5 60 4.9 SSW 13 17 7 9 1006.6 1006.5 0.0
21/07:30pm 25.0 24.6 15.3 55 5.9 SSW 11 13 6 7 1006.3 1006.2 0.0
21/07:00pm 25.5 25.4 16.1 56 5.7 SW 11 15 6 8 1006.1 1006.0 0.0
21/06:30pm 25.3 24.1 16.2 57 5.6 SW 17 20 9 11 1006.1 1006.0 0.0
21/06:00pm 25.8 24.9 17.7 61 5.1 SW 19 24 10 13 1005.9 1005.8 0.0
21/05:30pm 26.6 26.1 17.9 59 5.5 SW 17 20 9 11 1006.2 1006.1 0.0
21/05:00pm 27.4 27.1 17.3 54 6.3 SW 15 20 8 11 1006.2 1006.1 0.0
21/04:30pm 28.3 27.9 18.1 54 6.5 S 17 24 9 13 1006.1 1006.0 0.0
21/04:00pm 29.3 28.7 18.4 51 7.0 S 19 24 10 13 1006.1 1006.0 0.0
21/03:30pm 32.0 29.3 14.6 34 10.7 SSW 22 26 12 14 1006.3 1006.2 0.0
21/03:00pm 33.7 32.6 15.2 33 11.5 WSW 15 24 8 13 1006.3 1006.2 0.0
21/02:30pm 38.0 33.3 7.8 16 17.2 ENE 22 32 12 17 1006.4 1006.3 0.0
21/02:00pm 37.9 33.8 8.6 17 16.8 ENE 20 32 11 17 1006.9 1006.8 0.0
21/01:30pm 36.7 32.4 9.3 19 15.8 ENE 22 32 12 17 1007.4 1007.3 0.0
21/01:00pm 36.0 31.9 11.6 23 14.5 ENE 24 33 13 18 1008.1 1008.0 0.0
21/12:30pm 34.5 30.3 11.0 24 13.8 ENE 24 32 13 17 1008.6 1008.5 0.0
21/12:00pm 32.9 28.9 10.3 25 13.0 ENE 22 32 12 17 1009.1 1009.0 0.0
21/11:30am 32.2 28.8 11.4 28 12.2 ENE 20 30 11 16 1009.5 1009.4 0.0
21/11:00am 30.2 25.7 10.2 29 11.4 ENE 24 28 13 15 1009.9 1009.8 0.0
21/10:30am 29.4 25.8 10.5 31 10.8 NE 20 24 11 13 1010.2 1010.1 0.0
21/10:00am 28.1 25.0 11.6 36 9.5 NE 19 24 10 13 1010.3 1010.2 0.0
21/09:30am 26.8 25.3 13.2 43 8.0 NE 13 17 7 9 1010.4 1010.3 0.0
21/09:00am 24.3 24.2 15.0 56 5.6 NE 9 13 5 7 1010.4 1010.3 0.0
21/08:30am 22.3 22.2 14.9 63 4.4 NNE 9 11 5 6 1010.4 1010.3 0.0
21/08:00am 20.8 21.5 16.0 74 2.9 N 7 9 4 5 1010.3 1010.2 0.0
21/07:30am 19.3 19.9 14.3 73 2.9 NE 4 9 2 5 1010.1 1010.0 0.0
21/07:00am 19.6 20.3 14.4 72 3.0 WSW 4 7 2 4 1010.2 1010.1 0.0
21/06:30am 19.6 18.6 13.5 68 3.5 NE 11 15 6 8 1009.5 1009.4 0.0
21/06:00am 20.3 19.0 13.7 66 3.8 NE 13 15 7 8 1009.6 1009.5 0.0
21/05:30am 20.0 18.9 13.2 65 3.9 ENE 11 13 6 7 1009.6 1009.5 0.0
21/05:00am 20.2 18.8 13.4 65 3.9 ENE 13 15 7 8 1009.6 1009.5 0.0
21/04:30am 20.3 19.6 13.3 64 4.0 NE 9 13 5 7 1009.8 1009.7 0.0
21/04:00am 19.7 18.4 13.6 68 3.5 E 13 17 7 9 1009.7 1009.6 0.0
21/03:30am 19.2 17.5 13.6 70 3.2 E 15 17 8 9 1009.7 1009.6 0.0
21/03:00am 19.7 17.6 13.6 68 3.5 E 17 19 9 10 1009.6 1009.5 0.0
21/02:30am 20.6 20.0 14.7 69 3.5 E 11 13 6 7 1009.9 1009.8 0.0
21/02:00am 21.0 20.3 15.3 70 3.4 E 13 13 7 7 1010.2 1010.1 0.0
21/01:30am 21.4 21.3 15.9 71 3.3 E 11 13 6 7 1010.4 1010.3 0.0
21/01:00am 21.8 21.2 15.6 68 3.7 E 13 13 7 7 1010.4 1010.3 0.0
21/12:30am 21.9 21.3 15.7 68 3.7 E 13 15 7 8 1010.5 1010.4 0.0
21/12:00am 22.3 21.5 15.2 64 4.2 E 13 15 7 8 1010.5 1010.4 0.0
 
Date/Time
CDT
Temp
°C
App
Temp
°C
Dew
Point
°C
Rel
Hum
%
Delta-T
°C
Wind Press
QNH
hPa
Press
MSL
hPa
Rain since
9am
mm
Dir  Spd
km/h
Gust
km/h
Spd
kts
Gust
kts
20/11:30pm 23.9 21.5 10.2 42 7.5 NNE 13 17 7 9 1010.5 1010.4 0.0
20/11:00pm 22.9 21.9 12.2 51 6.1 NE 9 11 5 6 1010.7 1010.6 0.0
20/10:30pm 24.7 23.7 12.3 46 7.1 N 9 11 5 6 1010.7 1010.6 0.0
20/10:00pm 25.4 23.7 12.6 45 7.4 NNE 13 17 7 9 1010.5 1010.4 0.0
20/09:30pm 25.5 23.5 14.0 49 6.8 NNE 17 20 9 11 1010.3 1010.2 0.0
20/09:00pm 26.6 23.0 11.9 40 8.4 NE 22 30 12 16 1010.0 1009.9 0.0
20/08:30pm 27.3 22.6 10.5 35 9.5 NE 26 35 14 19 1009.7 1009.6 0.0
20/08:00pm 27.7 22.7 9.5 32 10.1 ENE 26 35 14 19 1009.6 1009.5 0.0
20/07:30pm 28.0 22.2 9.3 31 10.4 ENE 30 46 16 25 1009.4 1009.3 0.0
20/07:00pm 28.8 22.6 10.0 31 10.6 ENE 33 44 18 24 1009.5 1009.4 0.0
20/06:30pm 29.9 23.8 10.5 30 11.1 ENE 33 46 18 25 1009.7 1009.6 0.0
20/06:00pm 29.1 24.0 10.7 32 10.5 ENE 28 41 15 22 1010.1 1010.0 0.0
20/05:30pm 29.1 24.6 12.5 36 9.7 E 28 37 15 20 1010.1 1010.0 0.0
20/05:00pm 29.0 23.5 12.0 35 9.9 E 32 37 17 20 1010.3 1010.2 0.0
20/04:30pm 28.9 24.1 11.5 34 10.0 E 28 41 15 22 1010.4 1010.3 0.0
20/04:00pm 28.9 23.8 10.6 32 10.4 E 28 39 15 21 1010.9 1010.8 0.0
20/03:30pm 30.4 27.4 11.9 32 10.8 ENE 19 28 10 15 1011.1 1011.0 0.0
20/03:00pm 28.5 25.1 12.4 37 9.4 NE 22 30 12 16 1011.4 1011.3 0.0
20/02:30pm 26.8 23.7 13.5 44 7.8 ENE 22 32 12 17 1011.8 1011.7 0.0
20/02:00pm 25.0 20.9 13.9 50 6.5 ENE 28 33 15 18 1012.1 1012.0 0.0
20/01:30pm 23.0 20.6 16.3 66 4.1 ESE 24 30 13 16 1012.6 1012.5 0.0
20/01:00pm 21.5 19.7 16.0 71 3.3 SE 20 30 11 16 1013.3 1013.2 0.0
20/12:30pm 22.6 21.7 15.9 66 4.0 E 15 20 8 11 1013.7 1013.6 0.0
20/12:00pm 21.3 21.0 16.5 74 2.9 SE 13 20 7 11 1014.4 1014.3 0.0
20/11:30am 20.0 18.8 16.2 79 2.3 SE 17 20 9 11 1014.8 1014.7 0.0
20/11:00am 20.1 19.4 16.3 79 2.3 E 15 20 8 11 1015.0 1014.9 0.0
20/10:30am 19.7 18.2 16.7 83 1.8 SE 20 28 11 15 1014.3 1014.2 0.0
20/10:00am 20.1 19.1 16.5 80 2.2 E 17 26 9 14 1014.8 1014.7 0.0
20/09:30am 19.4 17.2 17.0 86 1.5 SSE 24 30 13 16 1015.3 1015.3 0.0
20/09:00am 19.0 17.7 16.8 87 1.3 SSE 19 28 10 15 1014.9 1014.8 0.0
20/08:30am 17.2 16.8 14.1 82 1.8 ESE 9 11 5 6 1014.0 1013.9 0.0
20/08:00am 16.5 14.9 13.8 84 1.5 NE 15 17 8 9 1013.2 1013.1 0.0
20/07:30am 15.6 15.0 13.4 87 1.2 ENE 9 11 5 6 1013.3 1013.2 0.0
20/07:00am 15.9 14.4 13.0 83 1.6 NNE 13 15 7 8 1012.8 1012.7 0.0
20/06:30am 16.0 14.6 13.3 84 1.5 N 13 17 7 9 1012.8 1012.7 0.0
20/06:00am 15.7 15.7 14.1 90 0.9 N 7 9 4 5 1012.9 1012.8 0.0
20/05:30am 15.7 14.9 13.9 89 1.0 N 11 13 6 7 1013.1 1013.0 0.0
20/05:00am 16.3 15.9 14.0 86 1.3 NNE 9 11 5 6 1013.1 1013.0 0.0
20/04:30am 16.8 18.3 14.6 87 1.3 CALM 0 0 0 0 1013.5 1013.4 0.0
20/04:00am 16.8 17.5 14.4 86 1.4 NW 4 6 2 3 1013.7 1013.6 0.0
20/03:30am 16.3 16.3 14.3 88 1.1 NW 7 9 4 5 1013.8 1013.7 0.0
20/03:00am 16.0 15.6 14.2 89 1.0 NW 9 9 5 5 1014.4 1014.3 0.0
20/02:30am 16.5 16.4 14.9 90 0.9 NNW 9 9 5 5 1014.4 1014.3 0.0
20/02:00am 16.9 16.9 15.2 90 1.0 NW 9 11 5 6 1014.8 1014.7 0.0
20/01:30am 17.8 18.1 16.0 89 1.1 WSW 9 13 5 7 1015.4 1015.4 0.0
20/01:00am 17.6 17.0 15.6 88 1.2 SW 13 17 7 9 1016.0 1016.0 0.0
20/12:30am 17.5 16.9 15.7 89 1.1 WSW 13 17 7 9 1016.4 1016.4 0.0
20/12:00am 17.6 17.1 15.8 89 1.1 SW 13 15 7 8 1016.7 1016.7 0.0
 
Date/Time
CDT
Temp
°C
App
Temp
°C
Dew
Point
°C
Rel
Hum
%
Delta-T
°C
Wind Press
QNH
hPa
Press
MSL
hPa
Rain since
9am
mm
Dir  Spd
km/h
Gust
km/h
Spd
kts
Gust
kts
19/11:30pm 17.8 17.3 15.8 88 1.2 SSW 13 15 7 8 1016.9 1016.9 0.0
19/11:00pm 18.0 17.2 16.0 88 1.2 SSW 15 19 8 10 1017.3 1017.3 0.0
19/10:30pm 18.1 16.9 16.1 88 1.2 SW 17 19 9 10 1017.6 1017.6 0.0
19/10:00pm 18.0 16.7 15.8 87 1.3 SSW 17 20 9 11 1017.4 1017.4 0.0
19/09:30pm 18.1 17.1 15.7 86 1.4 SSW 15 19 8 10 1017.3 1017.3 0.0
19/09:00pm 18.2 17.2 15.6 85 1.5 SSW 15 17 8 9 1017.1 1017.1 0.0
19/08:30pm 18.4 17.4 15.6 84 1.6 SSW 15 17 8 9 1017.1 1017.1 0.0
19/08:00pm 18.6 17.2 15.5 82 1.8 SSW 17 19 9 10 1017.0 1017.0 0.0
19/07:30pm 19.2 18.2 15.5 79 2.2 SSW 15 17 8 9 1016.7 1016.7 0.0
19/07:00pm 19.5 17.5 15.4 77 2.4 S 20 24 11 13 1016.6 1016.6 0.0
19/06:30pm 20.1 18.1 15.5 75 2.7 S 20 24 11 13 1016.6 1016.6 0.0
19/06:00pm 20.9 18.8 16.3 75 2.8 S 22 26 12 14 1016.5 1016.5 0.0
19/05:30pm 20.8 18.5 15.6 72 3.1 SSW 22 26 12 14 1016.6 1016.6 0.0
19/05:00pm 21.2 19.2 16.4 74 2.9 S 22 26 12 14 1016.6 1016.6 0.0
19/04:30pm 21.4 19.8 16.4 73 3.0 S 20 26 11 14 1016.9 1016.9 0.0
19/04:00pm 21.8 20.0 16.1 70 3.4 SSW 20 24 11 13 1017.3 1017.3 0.0
19/03:30pm 21.1 19.5 16.5 75 2.8 S 20 22 11 12 1017.8 1017.8 0.0
19/03:00pm 22.0 20.4 16.5 71 3.3 S 20 24 11 13 1018.3 1018.3 0.0
19/02:30pm 21.4 19.5 15.7 70 3.4 S 20 24 11 13 1018.5 1018.5 0.0
19/02:00pm 21.8 19.6 15.9 69 3.5 S 22 26 12 14 1019.0 1019.0 0.0
19/01:30pm 21.4 19.9 16.4 73 3.0 S 19 24 10 13 1019.2 1019.2 0.0
19/01:00pm 21.4 19.6 15.5 69 3.5 SSE 19 20 10 11 1019.4 1019.4 0.0
19/12:30pm 20.9 19.1 15.4 71 3.3 SSE 19 22 10 12 1019.6 1019.6 0.0
19/12:00pm 21.0 19.2 15.5 71 3.3 SSE 19 22 10 12 1019.9 1019.9 0.0
19/11:30am 21.2 19.7 15.3 69 3.5 SSE 17 19 9 10 1019.9 1019.9 0.0
19/11:00am 20.9 20.1 15.2 70 3.4 SSE 13 17 7 9 1019.9 1019.9 0.0
19/10:30am 20.0 18.6 14.6 71 3.1 SE 15 17 8 9 1020.0 1020.0 0.0
19/10:00am 19.4 17.6 14.4 73 2.9 SE 17 20 9 11 1020.2 1020.2 0.0
19/09:30am 18.7 17.2 14.2 75 2.6 SE 15 19 8 10 1020.2 1020.2 0.0
19/09:00am 18.0 16.5 14.1 78 2.2 ESE 15 17 8 9 1020.1 1020.1 0.2
19/08:30am 17.4 16.2 14.1 81 1.9 ESE 13 17 7 9 1020.1 1020.1 0.2

Other formats

Comma delimited format used in spreadsheet applications
http://www.bom.gov.au/fwo/IDS60801/IDS60801.94677.axf

JavaScript Object Notation format (JSON) in row-major order
http://www.bom.gov.au/fwo/IDS60801/IDS60801.94677.json

Data quality

Most of these data are generated automatically and are frequently updated. Quality checks on data are not normally performed. It is possible for incorrect values to appear. Refer to information at About Latest Weather Observations and please check the disclaimer before using these data.